sensor_id;sensor_type;location;lat;lon;timestamp;temperature;humidity
78520;SHT31;67818;51.986;5.648;2023-02-26T00:00:19;3.7;62.6
78520;SHT31;67818;51.986;5.648;2023-02-26T00:02:48;3.7;62.1
78520;SHT31;67818;51.986;5.648;2023-02-26T00:05:20;3.7;62.1
78520;SHT31;67818;51.986;5.648;2023-02-26T00:07:51;3.7;61.4
78520;SHT31;67818;51.986;5.648;2023-02-26T00:10:21;3.7;61.3
78520;SHT31;67818;51.986;5.648;2023-02-26T00:12:52;3.7;61.1
78520;SHT31;67818;51.986;5.648;2023-02-26T00:15:23;3.6;61.2
78520;SHT31;67818;51.986;5.648;2023-02-26T00:18:00;3.5;61.1
78520;SHT31;67818;51.986;5.648;2023-02-26T00:20:32;3.5;61.3
78520;SHT31;67818;51.986;5.648;2023-02-26T00:23:03;3.4;61.5
78520;SHT31;67818;51.986;5.648;2023-02-26T00:25:33;3.3;61.6
78520;SHT31;67818;51.986;5.648;2023-02-26T00:28:03;3.2;62.1
78520;SHT31;67818;51.986;5.648;2023-02-26T00:30:34;3.1;62.1
78520;SHT31;67818;51.986;5.648;2023-02-26T00:35:35;2.8;63.1
78520;SHT31;67818;51.986;5.648;2023-02-26T00:38:09;2.8;63.3
78520;SHT31;67818;51.986;5.648;2023-02-26T00:40:43;2.7;63.3
78520;SHT31;67818;51.986;5.648;2023-02-26T00:43:17;2.7;63.1
78520;SHT31;67818;51.986;5.648;2023-02-26T00:46:04;2.7;63.8
78520;SHT31;67818;51.986;5.648;2023-02-26T00:48:46;2.8;63.7
78520;SHT31;67818;51.986;5.648;2023-02-26T00:51:29;2.9;63.0
78520;SHT31;67818;51.986;5.648;2023-02-26T00:54:12;2.9;62.3
78520;SHT31;67818;51.986;5.648;2023-02-26T00:56:44;3.0;61.9
78520;SHT31;67818;51.986;5.648;2023-02-26T00:59:15;3.0;61.5
78520;SHT31;67818;51.986;5.648;2023-02-26T01:01:47;3.0;60.9
78520;SHT31;67818;51.986;5.648;2023-02-26T01:04:20;2.9;61.0
78520;SHT31;67818;51.986;5.648;2023-02-26T01:06:52;2.8;60.7
78520;SHT31;67818;51.986;5.648;2023-02-26T01:09:26;2.8;61.1
78520;SHT31;67818;51.986;5.648;2023-02-26T01:11:59;2.7;61.6
78520;SHT31;67818;51.986;5.648;2023-02-26T01:14:32;2.6;61.5
78520;SHT31;67818;51.986;5.648;2023-02-26T01:17:10;2.6;61.7
78520;SHT31;67818;51.986;5.648;2023-02-26T01:19:48;2.5;62.0
78520;SHT31;67818;51.986;5.648;2023-02-26T01:22:24;2.4;62.0
78520;SHT31;67818;51.986;5.648;2023-02-26T01:25:01;2.3;62.5
78520;SHT31;67818;51.986;5.648;2023-02-26T01:27:32;2.3;62.6
78520;SHT31;67818;51.986;5.648;2023-02-26T01:30:04;2.2;62.8
78520;SHT31;67818;51.986;5.648;2023-02-26T01:32:43;2.2;63.0
78520;SHT31;67818;51.986;5.648;2023-02-26T01:35:28;2.2;63.0
78520;SHT31;67818;51.986;5.648;2023-02-26T01:38:08;2.1;63.2
78520;SHT31;67818;51.986;5.648;2023-02-26T01:41:47;2.1;63.5
78520;SHT31;67818;51.986;5.648;2023-02-26T01:44:24;2.0;63.4
78520;SHT31;67818;51.986;5.648;2023-02-26T01:47:13;2.0;63.1
78520;SHT31;67818;51.986;5.648;2023-02-26T01:49:47;1.9;63.2
78520;SHT31;67818;51.986;5.648;2023-02-26T01:53:19;1.9;63.3
78520;SHT31;67818;51.986;5.648;2023-02-26T01:55:55;1.9;63.3
78520;SHT31;67818;51.986;5.648;2023-02-26T01:58:31;1.8;63.4
78520;SHT31;67818;51.986;5.648;2023-02-26T02:01:04;1.8;63.8
78520;SHT31;67818;51.986;5.648;2023-02-26T02:03:37;1.8;63.6
78520;SHT31;67818;51.986;5.648;2023-02-26T02:06:09;1.7;63.4
78520;SHT31;67818;51.986;5.648;2023-02-26T02:08:43;1.7;63.8
78520;SHT31;67818;51.986;5.648;2023-02-26T02:11:17;1.7;63.3
78520;SHT31;67818;51.986;5.648;2023-02-26T02:13:58;1.7;63.7
78520;SHT31;67818;51.986;5.648;2023-02-26T02:16:40;1.6;63.9
78520;SHT31;67818;51.986;5.648;2023-02-26T02:19:32;1.6;63.6
78520;SHT31;67818;51.986;5.648;2023-02-26T02:22:25;1.6;64.0
78520;SHT31;67818;51.986;5.648;2023-02-26T02:25:10;1.6;64.2
78520;SHT31;67818;51.986;5.648;2023-02-26T02:27:52;1.5;64.5
78520;SHT31;67818;51.986;5.648;2023-02-26T02:30:34;1.5;64.0
78520;SHT31;67818;51.986;5.648;2023-02-26T02:33:12;1.5;64.3
78520;SHT31;67818;51.986;5.648;2023-02-26T02:35:48;1.5;64.3
78520;SHT31;67818;51.986;5.648;2023-02-26T02:38:22;1.5;64.2
78520;SHT31;67818;51.986;5.648;2023-02-26T02:41:04;1.5;64.3
78520;SHT31;67818;51.986;5.648;2023-02-26T02:43:38;1.4;64.0
78520;SHT31;67818;51.986;5.648;2023-02-26T02:46:19;1.4;64.0
78520;SHT31;67818;51.986;5.648;2023-02-26T02:48:59;1.4;64.1
78520;SHT31;67818;51.986;5.648;2023-02-26T02:51:33;1.4;64.0
78520;SHT31;67818;51.986;5.648;2023-02-26T02:54:10;1.4;64.3
78520;SHT31;67818;51.986;5.648;2023-02-26T02:56:46;1.4;64.0
78520;SHT31;67818;51.986;5.648;2023-02-26T02:59:22;1.4;63.8
78520;SHT31;67818;51.986;5.648;2023-02-26T03:02:03;1.3;63.8
78520;SHT31;67818;51.986;5.648;2023-02-26T03:04:39;1.3;63.3
78520;SHT31;67818;51.986;5.648;2023-02-26T03:07:11;1.3;63.6
78520;SHT31;67818;51.986;5.648;2023-02-26T03:09:41;1.3;63.1
78520;SHT31;67818;51.986;5.648;2023-02-26T03:12:12;1.3;63.1
78520;SHT31;67818;51.986;5.648;2023-02-26T03:14:42;1.3;62.4
78520;SHT31;67818;51.986;5.648;2023-02-26T03:17:19;1.3;62.6
78520;SHT31;67818;51.986;5.648;2023-02-26T03:20:01;1.3;62.7
78520;SHT31;67818;51.986;5.648;2023-02-26T03:22:38;1.3;62.3
78520;SHT31;67818;51.986;5.648;2023-02-26T03:25:18;1.3;62.8
78520;SHT31;67818;51.986;5.648;2023-02-26T03:27:56;1.3;62.3
78520;SHT31;67818;51.986;5.648;2023-02-26T03:30:36;1.3;61.7
78520;SHT31;67818;51.986;5.648;2023-02-26T03:33:12;1.2;61.8
78520;SHT31;67818;51.986;5.648;2023-02-26T03:35:49;1.3;61.9
78520;SHT31;67818;51.986;5.648;2023-02-26T03:38:27;1.2;62.2
78520;SHT31;67818;51.986;5.648;2023-02-26T03:41:03;1.2;61.8
78520;SHT31;67818;51.986;5.648;2023-02-26T03:43:38;1.2;62.0
78520;SHT31;67818;51.986;5.648;2023-02-26T03:46:15;1.2;62.2
78520;SHT31;67818;51.986;5.648;2023-02-26T03:48:49;1.2;61.4
78520;SHT31;67818;51.986;5.648;2023-02-26T03:51:27;1.2;62.2
78520;SHT31;67818;51.986;5.648;2023-02-26T03:54:03;1.2;61.2
78520;SHT31;67818;51.986;5.648;2023-02-26T03:56:41;1.2;61.8
78520;SHT31;67818;51.986;5.648;2023-02-26T03:59:14;1.2;61.0
78520;SHT31;67818;51.986;5.648;2023-02-26T04:01:52;1.1;61.8
78520;SHT31;67818;51.986;5.648;2023-02-26T04:04:29;1.1;61.2
78520;SHT31;67818;51.986;5.648;2023-02-26T04:07:00;1.1;61.4
78520;SHT31;67818;51.986;5.648;2023-02-26T04:09:30;1.1;61.4
78520;SHT31;67818;51.986;5.648;2023-02-26T04:14:29;1.3;59.6
78520;SHT31;67818;51.986;5.648;2023-02-26T04:17:00;1.3;59.4
78520;SHT31;67818;51.986;5.648;2023-02-26T04:19:32;1.3;59.3
78520;SHT31;67818;51.986;5.648;2023-02-26T04:22:02;1.3;59.8
78520;SHT31;67818;51.986;5.648;2023-02-26T04:24:36;1.2;58.9
78520;SHT31;67818;51.986;5.648;2023-02-26T04:27:07;1.2;59.5
78520;SHT31;67818;51.986;5.648;2023-02-26T04:29:39;1.2;59.4
78520;SHT31;67818;51.986;5.648;2023-02-26T04:32:09;1.2;59.2
78520;SHT31;67818;51.986;5.648;2023-02-26T04:34:39;1.1;59.0
78520;SHT31;67818;51.986;5.648;2023-02-26T04:37:10;1.1;59.1
78520;SHT31;67818;51.986;5.648;2023-02-26T04:39:40;1.1;59.8
78520;SHT31;67818;51.986;5.648;2023-02-26T04:42:10;1.1;59.8
78520;SHT31;67818;51.986;5.648;2023-02-26T04:44:43;1.0;60.4
78520;SHT31;67818;51.986;5.648;2023-02-26T04:47:14;1.0;59.8
78520;SHT31;67818;51.986;5.648;2023-02-26T04:49:43;0.9;59.8
78520;SHT31;67818;51.986;5.648;2023-02-26T04:52:15;0.9;60.2
78520;SHT31;67818;51.986;5.648;2023-02-26T04:54:45;0.9;60.2
78520;SHT31;67818;51.986;5.648;2023-02-26T04:57:18;0.8;60.4
78520;SHT31;67818;51.986;5.648;2023-02-26T04:59:48;0.8;60.7
78520;SHT31;67818;51.986;5.648;2023-02-26T05:02:18;0.8;59.9
78520;SHT31;67818;51.986;5.648;2023-02-26T05:04:50;0.7;60.5
78520;SHT31;67818;51.986;5.648;2023-02-26T05:09:50;0.9;59.7
78520;SHT31;67818;51.986;5.648;2023-02-26T05:12:22;0.9;60.2
78520;SHT31;67818;51.986;5.648;2023-02-26T05:14:52;0.9;60.0
78520;SHT31;67818;51.986;5.648;2023-02-26T05:17:23;0.8;60.4
78520;SHT31;67818;51.986;5.648;2023-02-26T05:19:54;0.8;60.6
78520;SHT31;67818;51.986;5.648;2023-02-26T05:22:26;0.8;60.6
78520;SHT31;67818;51.986;5.648;2023-02-26T05:25:00;0.8;60.5
78520;SHT31;67818;51.986;5.648;2023-02-26T05:27:34;0.7;60.8
78520;SHT31;67818;51.986;5.648;2023-02-26T05:30:06;0.7;60.5
78520;SHT31;67818;51.986;5.648;2023-02-26T05:32:36;0.7;60.5
78520;SHT31;67818;51.986;5.648;2023-02-26T05:35:08;0.6;60.6
78520;SHT31;67818;51.986;5.648;2023-02-26T05:37:38;0.6;61.0
78520;SHT31;67818;51.986;5.648;2023-02-26T05:40:09;0.6;60.8
78520;SHT31;67818;51.986;5.648;2023-02-26T05:42:39;0.5;60.9
78520;SHT31;67818;51.986;5.648;2023-02-26T05:45:10;0.5;60.5
78520;SHT31;67818;51.986;5.648;2023-02-26T05:47:40;0.4;60.2
78520;SHT31;67818;51.986;5.648;2023-02-26T05:50:13;0.4;60.4
78520;SHT31;67818;51.986;5.648;2023-02-26T05:52:42;0.4;60.4
78520;SHT31;67818;51.986;5.648;2023-02-26T05:55:11;0.3;61.3
78520;SHT31;67818;51.986;5.648;2023-02-26T05:57:41;0.3;61.5
78520;SHT31;67818;51.986;5.648;2023-02-26T06:00:11;0.3;61.3
78520;SHT31;67818;51.986;5.648;2023-02-26T06:02:41;0.2;61.8
78520;SHT31;67818;51.986;5.648;2023-02-26T06:05:11;0.2;61.5
78520;SHT31;67818;51.986;5.648;2023-02-26T06:07:41;0.2;61.4
78520;SHT31;67818;51.986;5.648;2023-02-26T06:10:11;0.1;61.4
78520;SHT31;67818;51.986;5.648;2023-02-26T06:12:41;0.1;61.7
78520;SHT31;67818;51.986;5.648;2023-02-26T06:15:11;0.1;62.1
78520;SHT31;67818;51.986;5.648;2023-02-26T06:17:41;0.1;62.0
78520;SHT31;67818;51.986;5.648;2023-02-26T06:20:11;0.0;61.5
78520;SHT31;67818;51.986;5.648;2023-02-26T06:25:13;0.2;60.6
78520;SHT31;67818;51.986;5.648;2023-02-26T06:27:42;0.3;61.1
78520;SHT31;67818;51.986;5.648;2023-02-26T06:30:12;0.3;60.5
78520;SHT31;67818;51.986;5.648;2023-02-26T06:32:42;0.3;60.8
78520;SHT31;67818;51.986;5.648;2023-02-26T06:35:12;0.3;60.2
78520;SHT31;67818;51.986;5.648;2023-02-26T06:37:41;0.3;60.0
78520;SHT31;67818;51.986;5.648;2023-02-26T06:40:12;0.3;59.7
78520;SHT31;67818;51.986;5.648;2023-02-26T06:42:42;0.3;60.3
78520;SHT31;67818;51.986;5.648;2023-02-26T06:45:12;0.3;61.0
78520;SHT31;67818;51.986;5.648;2023-02-26T06:47:42;0.3;61.0
78520;SHT31;67818;51.986;5.648;2023-02-26T06:50:12;0.3;60.8
78520;SHT31;67818;51.986;5.648;2023-02-26T06:52:41;0.2;61.0
78520;SHT31;67818;51.986;5.648;2023-02-26T06:55:12;0.2;61.3
78520;SHT31;67818;51.986;5.648;2023-02-26T06:57:42;0.2;61.2
78520;SHT31;67818;51.986;5.648;2023-02-26T07:00:12;0.2;61.2
78520;SHT31;67818;51.986;5.648;2023-02-26T07:02:45;0.2;61.3
78520;SHT31;67818;51.986;5.648;2023-02-26T07:05:14;0.2;61.7
78520;SHT31;67818;51.986;5.648;2023-02-26T07:07:45;0.2;61.4
78520;SHT31;67818;51.986;5.648;2023-02-26T07:10:16;0.3;61.9
78520;SHT31;67818;51.986;5.648;2023-02-26T07:12:48;0.3;62.2
78520;SHT31;67818;51.986;5.648;2023-02-26T07:15:20;0.3;62.6
78520;SHT31;67818;51.986;5.648;2023-02-26T07:17:49;0.4;62.7
78520;SHT31;67818;51.986;5.648;2023-02-26T07:20:19;0.6;62.1
78520;SHT31;67818;51.986;5.648;2023-02-26T07:22:50;0.9;61.5
78520;SHT31;67818;51.986;5.648;2023-02-26T07:25:20;1.2;60.4
78520;SHT31;67818;51.986;5.648;2023-02-26T07:27:51;1.5;59.5
78520;SHT31;67818;51.986;5.648;2023-02-26T07:30:21;1.8;59.0
78520;SHT31;67818;51.986;5.648;2023-02-26T07:32:50;2.1;57.5
78520;SHT31;67818;51.986;5.648;2023-02-26T07:35:20;2.4;56.4
78520;SHT31;67818;51.986;5.648;2023-02-26T07:37:50;2.7;56.9
78520;SHT31;67818;51.986;5.648;2023-02-26T07:40:20;2.9;55.5
78520;SHT31;67818;51.986;5.648;2023-02-26T07:42:49;3.2;55.0
78520;SHT31;67818;51.986;5.648;2023-02-26T07:45:19;3.4;54.0
78520;SHT31;67818;51.986;5.648;2023-02-26T07:47:50;3.5;53.3
78520;SHT31;67818;51.986;5.648;2023-02-26T07:50:21;3.7;53.1
78520;SHT31;67818;51.986;5.648;2023-02-26T07:52:52;4.0;51.9
78520;SHT31;67818;51.986;5.648;2023-02-26T07:55:22;4.2;52.5
78520;SHT31;67818;51.986;5.648;2023-02-26T07:57:51;4.4;50.5
78520;SHT31;67818;51.986;5.648;2023-02-26T08:00:24;4.6;51.0
78520;SHT31;67818;51.986;5.648;2023-02-26T08:02:53;4.8;50.5
78520;SHT31;67818;51.986;5.648;2023-02-26T08:05:24;5.1;49.2
78520;SHT31;67818;51.986;5.648;2023-02-26T08:07:54;5.3;49.5
78520;SHT31;67818;51.986;5.648;2023-02-26T08:10:23;5.5;47.6
78520;SHT31;67818;51.986;5.648;2023-02-26T08:12:53;5.7;47.1
78520;SHT31;67818;51.986;5.648;2023-02-26T08:15:23;5.8;46.8
78520;SHT31;67818;51.986;5.648;2023-02-26T08:17:53;5.9;46.3
78520;SHT31;67818;51.986;5.648;2023-02-26T08:20:23;6.1;46.9
78520;SHT31;67818;51.986;5.648;2023-02-26T08:22:52;6.2;45.7
78520;SHT31;67818;51.986;5.648;2023-02-26T08:25:22;6.3;46.1
78520;SHT31;67818;51.986;5.648;2023-02-26T08:27:53;6.4;45.3
78520;SHT31;67818;51.986;5.648;2023-02-26T08:30:24;6.6;45.2
78520;SHT31;67818;51.986;5.648;2023-02-26T08:32:55;6.7;44.8
78520;SHT31;67818;51.986;5.648;2023-02-26T08:35:24;6.8;45.0
78520;SHT31;67818;51.986;5.648;2023-02-26T08:37:54;7.0;44.2
78520;SHT31;67818;51.986;5.648;2023-02-26T08:40:25;7.2;43.9
78520;SHT31;67818;51.986;5.648;2023-02-26T08:42:55;7.3;43.8
78520;SHT31;67818;51.986;5.648;2023-02-26T08:45:24;7.4;43.2
78520;SHT31;67818;51.986;5.648;2023-02-26T08:47:54;7.4;43.6
78520;SHT31;67818;51.986;5.648;2023-02-26T08:50:24;7.4;43.4
78520;SHT31;67818;51.986;5.648;2023-02-26T08:52:54;7.5;43.8
78520;SHT31;67818;51.986;5.648;2023-02-26T08:55:24;7.6;42.6
78520;SHT31;67818;51.986;5.648;2023-02-26T08:57:53;7.5;42.4
78520;SHT31;67818;51.986;5.648;2023-02-26T09:00:23;7.4;42.6
78520;SHT31;67818;51.986;5.648;2023-02-26T09:02:57;7.3;43.5
78520;SHT31;67818;51.986;5.648;2023-02-26T09:05:29;7.3;43.3
78520;SHT31;67818;51.986;5.648;2023-02-26T09:07:58;7.3;42.4
78520;SHT31;67818;51.986;5.648;2023-02-26T09:10:28;7.4;42.1
78520;SHT31;67818;51.986;5.648;2023-02-26T09:12:58;7.5;41.8
78520;SHT31;67818;51.986;5.648;2023-02-26T09:15:27;7.6;40.9
78520;SHT31;67818;51.986;5.648;2023-02-26T09:17:58;7.7;39.2
78520;SHT31;67818;51.986;5.648;2023-02-26T09:20:28;7.8;39.2
78520;SHT31;67818;51.986;5.648;2023-02-26T09:22:57;7.9;39.7
78520;SHT31;67818;51.986;5.648;2023-02-26T09:25:27;8.1;39.3
78520;SHT31;67818;51.986;5.648;2023-02-26T09:27:56;8.2;39.3
78520;SHT31;67818;51.986;5.648;2023-02-26T09:30:26;8.3;37.8
78520;SHT31;67818;51.986;5.648;2023-02-26T09:32:55;8.3;36.2
78520;SHT31;67818;51.986;5.648;2023-02-26T09:35:27;8.0;35.7
78520;SHT31;67818;51.986;5.648;2023-02-26T09:37:56;7.6;37.4
78520;SHT31;67818;51.986;5.648;2023-02-26T09:40:34;7.3;37.0
78520;SHT31;67818;51.986;5.648;2023-02-26T09:43:43;7.1;38.0
78520;SHT31;67818;51.986;5.648;2023-02-26T09:46:24;7.0;38.8
78520;SHT31;67818;51.986;5.648;2023-02-26T09:49:04;7.1;38.5
78520;SHT31;67818;51.986;5.648;2023-02-26T09:51:35;7.2;36.2
78520;SHT31;67818;51.986;5.648;2023-02-26T09:54:14;7.3;36.7
78520;SHT31;67818;51.986;5.648;2023-02-26T09:56:46;7.4;37.5
78520;SHT31;67818;51.986;5.648;2023-02-26T09:59:16;7.6;36.2
78520;SHT31;67818;51.986;5.648;2023-02-26T10:01:51;7.7;37.6
78520;SHT31;67818;51.986;5.648;2023-02-26T10:04:40;7.8;35.8
78520;SHT31;67818;51.986;5.648;2023-02-26T10:07:19;7.9;36.2
78520;SHT31;67818;51.986;5.648;2023-02-26T10:10:00;8.0;36.0
78520;SHT31;67818;51.986;5.648;2023-02-26T10:12:35;8.1;35.2
78520;SHT31;67818;51.986;5.648;2023-02-26T10:15:12;8.2;36.2
78520;SHT31;67818;51.986;5.648;2023-02-26T10:17:56;8.2;35.6
78520;SHT31;67818;51.986;5.648;2023-02-26T10:20:31;8.2;35.1
78520;SHT31;67818;51.986;5.648;2023-02-26T10:23:14;8.0;35.7
78520;SHT31;67818;51.986;5.648;2023-02-26T10:25:44;7.7;36.9
78520;SHT31;67818;51.986;5.648;2023-02-26T10:28:33;7.6;35.8
78520;SHT31;67818;51.986;5.648;2023-02-26T10:31:16;7.5;37.0
78520;SHT31;67818;51.986;5.648;2023-02-26T10:33:57;7.3;36.8
78520;SHT31;67818;51.986;5.648;2023-02-26T10:36:37;7.2;37.6
78520;SHT31;67818;51.986;5.648;2023-02-26T10:39:22;7.2;39.1
78520;SHT31;67818;51.986;5.648;2023-02-26T10:41:58;7.2;38.9
78520;SHT31;67818;51.986;5.648;2023-02-26T10:44:37;7.3;38.2
78520;SHT31;67818;51.986;5.648;2023-02-26T10:47:18;7.2;38.0
78520;SHT31;67818;51.986;5.648;2023-02-26T10:49:57;7.2;38.0
78520;SHT31;67818;51.986;5.648;2023-02-26T10:52:31;7.2;38.6
78520;SHT31;67818;51.986;5.648;2023-02-26T10:55:18;7.2;39.4
78520;SHT31;67818;51.986;5.648;2023-02-26T10:57:51;7.4;38.6
78520;SHT31;67818;51.986;5.648;2023-02-26T11:00:25;7.5;38.5
78520;SHT31;67818;51.986;5.648;2023-02-26T11:02:56;7.5;37.8
78520;SHT31;67818;51.986;5.648;2023-02-26T11:05:29;7.4;36.8
78520;SHT31;67818;51.986;5.648;2023-02-26T11:08:03;7.2;37.1
78520;SHT31;67818;51.986;5.648;2023-02-26T11:10:46;7.0;37.6
78520;SHT31;67818;51.986;5.648;2023-02-26T11:13:18;6.9;38.7
78520;SHT31;67818;51.986;5.648;2023-02-26T11:15:52;6.8;38.5
78520;SHT31;67818;51.986;5.648;2023-02-26T11:18:25;6.8;38.1
78520;SHT31;67818;51.986;5.648;2023-02-26T11:20:57;6.8;38.1
78520;SHT31;67818;51.986;5.648;2023-02-26T11:23:30;6.8;38.9
78520;SHT31;67818;51.986;5.648;2023-02-26T11:26:04;6.9;38.2
78520;SHT31;67818;51.986;5.648;2023-02-26T11:28:44;7.1;38.9
78520;SHT31;67818;51.986;5.648;2023-02-26T11:31:18;7.4;38.0
78520;SHT31;67818;51.986;5.648;2023-02-26T11:33:51;7.6;37.8
78520;SHT31;67818;51.986;5.648;2023-02-26T11:36:28;7.8;37.3
78520;SHT31;67818;51.986;5.648;2023-02-26T11:39:01;8.0;36.8
78520;SHT31;67818;51.986;5.648;2023-02-26T11:41:36;8.2;36.4
78520;SHT31;67818;51.986;5.648;2023-02-26T11:44:10;8.3;36.6
78520;SHT31;67818;51.986;5.648;2023-02-26T11:46:45;8.3;37.3
78520;SHT31;67818;51.986;5.648;2023-02-26T11:49:22;8.5;36.1
78520;SHT31;67818;51.986;5.648;2023-02-26T11:52:05;8.6;37.4
78520;SHT31;67818;51.986;5.648;2023-02-26T11:54:38;8.8;36.6
78520;SHT31;67818;51.986;5.648;2023-02-26T11:57:15;8.9;36.0
78520;SHT31;67818;51.986;5.648;2023-02-26T11:59:48;9.1;36.0
78520;SHT31;67818;51.986;5.648;2023-02-26T12:02:21;9.3;34.8
78520;SHT31;67818;51.986;5.648;2023-02-26T12:04:53;9.5;34.5
78520;SHT31;67818;51.986;5.648;2023-02-26T12:07:23;9.7;35.2
78520;SHT31;67818;51.986;5.648;2023-02-26T12:09:55;9.8;34.8
78520;SHT31;67818;51.986;5.648;2023-02-26T12:12:50;9.9;34.1
78520;SHT31;67818;51.986;5.648;2023-02-26T12:15:28;9.9;34.3
78520;SHT31;67818;51.986;5.648;2023-02-26T12:18:50;10.0;34.7
78520;SHT31;67818;51.986;5.648;2023-02-26T12:22:19;10.1;34.4
78520;SHT31;67818;51.986;5.648;2023-02-26T12:25:19;10.4;33.3
78520;SHT31;67818;51.986;5.648;2023-02-26T12:28:17;10.5;33.2
78520;SHT31;67818;51.986;5.648;2023-02-26T12:31:05;10.6;32.4
78520;SHT31;67818;51.986;5.648;2023-02-26T12:33:50;10.7;31.8
78520;SHT31;67818;51.986;5.648;2023-02-26T12:36:37;10.8;31.8
78520;SHT31;67818;51.986;5.648;2023-02-26T12:39:19;10.8;31.4
78520;SHT31;67818;51.986;5.648;2023-02-26T12:42:08;10.7;32.4
78520;SHT31;67818;51.986;5.648;2023-02-26T12:45:15;10.7;31.4
78520;SHT31;67818;51.986;5.648;2023-02-26T12:48:03;10.7;31.5
78520;SHT31;67818;51.986;5.648;2023-02-26T12:50:50;10.7;32.3
78520;SHT31;67818;51.986;5.648;2023-02-26T12:53:48;10.7;32.5
78520;SHT31;67818;51.986;5.648;2023-02-26T12:56:42;11.1;30.8
78520;SHT31;67818;51.986;5.648;2023-02-26T13:01:58;10.6;32.0
78520;SHT31;67818;51.986;5.648;2023-02-26T13:04:56;10.7;30.8
78520;SHT31;67818;51.986;5.648;2023-02-26T13:07:51;10.7;30.2
78520;SHT31;67818;51.986;5.648;2023-02-26T13:10:40;10.6;29.8
78520;SHT31;67818;51.986;5.648;2023-02-26T13:13:29;10.4;31.4
78520;SHT31;67818;51.986;5.648;2023-02-26T13:16:15;10.3;32.1
78520;SHT31;67818;51.986;5.648;2023-02-26T13:18:55;10.4;30.6
78520;SHT31;67818;51.986;5.648;2023-02-26T13:21:36;10.3;31.3
78520;SHT31;67818;51.986;5.648;2023-02-26T13:24:13;10.3;32.1
78520;SHT31;67818;51.986;5.648;2023-02-26T13:26:50;10.4;31.7
78520;SHT31;67818;51.986;5.648;2023-02-26T13:29:26;10.3;33.5
78520;SHT31;67818;51.986;5.648;2023-02-26T13:32:00;10.3;33.2
78520;SHT31;67818;51.986;5.648;2023-02-26T13:34:40;10.3;32.5
78520;SHT31;67818;51.986;5.648;2023-02-26T13:37:23;10.3;32.5
78520;SHT31;67818;51.986;5.648;2023-02-26T13:40:20;10.3;31.1
78520;SHT31;67818;51.986;5.648;2023-02-26T13:43:02;10.2;31.3
78520;SHT31;67818;51.986;5.648;2023-02-26T13:45:47;10.1;32.5
78520;SHT31;67818;51.986;5.648;2023-02-26T13:48:34;10.0;31.6
78520;SHT31;67818;51.986;5.648;2023-02-26T13:51:12;9.9;32.6
78520;SHT31;67818;51.986;5.648;2023-02-26T13:53:51;9.9;33.0
78520;SHT31;67818;51.986;5.648;2023-02-26T13:59:30;9.8;34.1
78520;SHT31;67818;51.986;5.648;2023-02-26T14:05:30;9.7;33.1
78520;SHT31;67818;51.986;5.648;2023-02-26T14:08:37;9.7;32.5
78520;SHT31;67818;51.986;5.648;2023-02-26T14:14:11;9.7;34.0
78520;SHT31;67818;51.986;5.648;2023-02-26T14:16:47;9.7;33.9
78520;SHT31;67818;51.986;5.648;2023-02-26T14:19:27;9.7;34.8
78520;SHT31;67818;51.986;5.648;2023-02-26T14:24:30;9.9;34.2
78520;SHT31;67818;51.986;5.648;2023-02-26T14:27:29;10.0;34.6
78520;SHT31;67818;51.986;5.648;2023-02-26T14:36:17;10.5;31.9
78520;SHT31;67818;51.986;5.648;2023-02-26T14:38:50;9.7;34.3
78520;SHT31;67818;51.986;5.648;2023-02-26T14:41:31;9.5;34.5
78520;SHT31;67818;51.986;5.648;2023-02-26T14:45:31;9.1;34.6
78520;SHT31;67818;51.986;5.648;2023-02-26T14:48:05;8.9;35.0
78520;SHT31;67818;51.986;5.648;2023-02-26T14:53:55;8.9;35.3
78520;SHT31;67818;51.986;5.648;2023-02-26T16:24:02;7.7;39.2
78520;SHT31;67818;51.986;5.648;2023-02-26T16:26:38;7.6;39.2
78520;SHT31;67818;51.986;5.648;2023-02-26T16:29:16;7.6;39.2
78520;SHT31;67818;51.986;5.648;2023-02-26T16:31:51;7.5;38.3
78520;SHT31;67818;51.986;5.648;2023-02-26T16:34:33;7.5;39.0
78520;SHT31;67818;51.986;5.648;2023-02-26T16:41:27;7.1;41.3
